Time;durP1;ratioP1;P1;durP2;ratioP2;P2;SDS_P1;SDS_P2;PMS_P1;PMS_P2;Temp;Humidity;BMP_temperature;BMP_pressure;BME280_temperature;BME280_humidity;BME280_pressure;Samples;Min_cycle;Max_cycle;Signal;HPM_P1;HPM_P2
2021/07/02 00:00:33;;;;;;;5.83;5.23;;;;;;;16.97;68.53;100135.75;127994;1098;22378;-78
2021/07/02 00:03:18;;;;;;;5.38;4.88;;;;;;;16.89;68.74;100139.47;128017;1098;22375;-78
2021/07/02 00:05:48;;;;;;;6.08;5.23;;;;;;;16.82;68.69;100139.50;127996;1098;23204;-78
2021/07/02 00:08:17;;;;;;;6.48;5.10;;;;;;;16.75;68.97;100141.39;127969;1098;22398;-78
2021/07/02 00:10:47;;;;;;;6.50;5.78;;;;;;;16.70;69.26;100141.20;127990;1098;24558;-77
2021/07/02 00:13:17;;;;;;;6.03;5.43;;;;;;;16.66;69.50;100143.47;127964;1098;23157;-77
2021/07/02 00:15:46;;;;;;;5.60;5.10;;;;;;;16.64;69.86;100144.70;127934;1101;24528;-77
2021/07/02 00:18:16;;;;;;;6.33;5.08;;;;;;;16.61;69.82;100145.13;127982;1101;24537;-77
2021/07/02 00:20:46;;;;;;;7.90;7.20;;;;;;;16.60;70.11;100151.50;127644;1101;22563;-78
2021/07/02 00:23:15;;;;;;;7.40;6.00;;;;;;;16.57;70.43;100154.59;128018;1101;22378;-80
2021/07/02 00:25:45;;;;;;;11.75;10.70;;;;;;;16.54;70.13;100160.34;127990;1101;22398;-80
2021/07/02 00:28:15;;;;;;;7.68;6.88;;;;;;;16.50;70.46;100154.63;127643;1101;22395;-79
2021/07/02 00:30:44;;;;;;;8.73;7.45;;;;;;;16.46;70.12;100154.23;127633;1100;22405;-78
2021/07/02 00:33:14;;;;;;;9.10;7.08;;;;;;;16.41;70.11;100154.02;127967;1098;22398;-78
2021/07/02 00:35:46;;;;;;;6.10;5.50;;;;;;;16.38;70.50;100159.77;127981;1098;24515;-79
2021/07/02 00:38:16;;;;;;;7.98;6.78;;;;;;;16.37;70.79;100154.67;127978;1098;22385;-78
2021/07/02 00:40:46;;;;;;;7.40;6.63;;;;;;;16.32;70.53;100149.95;127965;1098;22393;-78
2021/07/02 00:43:16;;;;;;;6.18;5.18;;;;;;;16.29;70.66;100160.22;127960;1098;23151;-78
2021/07/02 00:45:46;;;;;;;6.38;5.63;;;;;;;16.26;70.66;100163.30;127959;1098;24208;-78
2021/07/02 00:48:16;;;;;;;7.33;5.73;;;;;;;16.22;70.47;100157.56;128031;1098;22386;-78
2021/07/02 00:50:49;;;;;;;12.73;11.40;;;;;;;16.18;70.39;100153.69;128017;1098;22382;-78
2021/07/02 00:53:22;;;;;;;8.30;7.53;;;;;;;16.15;70.89;100154.11;127972;1098;24364;-78
2021/07/02 00:55:53;;;;;;;7.55;5.25;;;;;;;16.12;70.68;100143.86;127942;1098;22371;-77
2021/07/02 00:58:25;;;;;;;9.47;8.57;;;;;;;16.09;71.04;100146.94;127924;1098;23058;-78
2021/07/02 01:00:55;;;;;;;7.15;6.13;;;;;;;16.06;70.85;100144.69;128019;1098;25286;-78
2021/07/02 01:03:25;;;;;;;7.13;6.10;;;;;;;16.01;70.88;100142.66;128076;1098;22399;-78
2021/07/02 01:05:55;;;;;;;6.88;6.20;;;;;;;15.99;71.27;100150.03;127980;1098;22481;-78
2021/07/02 01:08:26;;;;;;;6.40;5.80;;;;;;;15.96;71.18;100147.78;127963;1101;22421;-78
2021/07/02 01:10:58;;;;;;;6.45;5.95;;;;;;;15.93;71.55;100154.37;127687;1101;22408;-78
2021/07/02 01:13:28;;;;;;;6.50;5.90;;;;;;;15.90;71.10;100144.13;127730;1101;22433;-78
2021/07/02 01:15:58;;;;;;;5.83;5.33;;;;;;;15.87;71.52;100139.20;127654;1101;22425;-78
2021/07/02 01:18:29;;;;;;;6.40;5.80;;;;;;;15.85;71.72;100138.58;127927;1101;22426;-78
2021/07/02 01:21:00;;;;;;;10.33;7.08;;;;;;;15.84;71.62;100130.81;127574;1101;22407;-78
2021/07/02 01:23:31;;;;;;;7.38;6.38;;;;;;;15.83;71.99;100135.33;128053;1101;22393;-79
2021/07/02 01:26:02;;;;;;;8.53;7.63;;;;;;;15.82;71.93;100131.00;127626;1098;22411;-78
2021/07/02 01:28:33;;;;;;;9.08;8.23;;;;;;;15.79;71.69;100133.27;127961;1101;22961;-78
2021/07/02 01:31:03;;;;;;;10.78;8.45;;;;;;;15.78;71.40;100128.98;128143;1101;22408;-78
2021/07/02 01:33:33;;;;;;;8.75;7.73;;;;;;;15.75;71.96;100130.20;127883;1101;22421;-78
2021/07/02 01:36:10;;;;;;;;;;;;;;;15.69;71.74;100125.70;127627;1101;22428;-79
2021/07/02 01:38:41;;;;;;;8.88;8.08;;;;;;;15.63;71.35;100129.99;127966;1101;22997;-78
2021/07/02 01:41:11;;;;;;;8.93;7.93;;;;;;;15.64;72.06;100126.30;127505;1105;24559;-79
2021/07/02 01:43:42;;;;;;;11.07;10.07;;;;;;;15.62;72.19;100115.02;127422;1104;22420;-78
2021/07/02 01:46:15;;;;;;;13.93;12.65;;;;;;;15.62;71.97;100122.20;127521;1101;22572;-78
2021/07/02 01:48:45;;;;;;;10.35;9.23;;;;;;;15.61;72.31;100115.24;127670;1101;24044;-80
2021/07/02 01:51:16;;;;;;;10.83;9.83;;;;;;;15.60;72.28;100116.28;127657;1104;22407;-76
2021/07/02 01:53:48;;;;;;;8.88;7.98;;;;;;;15.58;72.32;100120.98;127552;1104;23257;-77
2021/07/02 01:56:19;;;;;;;8.93;7.77;;;;;;;15.57;72.32;100117.50;127505;1104;22856;-79
2021/07/02 01:58:51;;;;;;;9.88;6.78;;;;;;;15.59;72.16;100117.28;127542;1101;22420;-77
2021/07/02 02:01:31;;;;;;;7.80;6.83;;;;;;;15.54;72.82;100120.57;127627;1101;24263;-78
2021/07/02 02:04:05;;;;;;;6.80;5.95;;;;;;;15.53;71.99;100117.09;127094;1105;24284;-77
2021/07/02 02:06:34;;;;;;;8.13;5.43;;;;;;;15.49;72.76;100123.86;127108;1105;22398;-78
2021/07/02 02:09:06;;;;;;;6.00;4.65;;;;;;;15.49;72.54;100125.68;127138;1101;22711;-77
2021/07/02 02:11:37;;;;;;;6.00;5.18;;;;;;;15.50;72.89;100128.16;127515;1104;22420;-80
2021/07/02 02:14:10;;;;;;;5.83;4.30;;;;;;;15.52;73.07;100128.75;127303;1105;22426;-79
2021/07/02 02:16:44;;;;;;;4.93;4.53;;;;;;;15.55;73.06;100132.84;127134;1104;22410;-79
2021/07/02 02:19:16;;;;;;;5.78;4.88;;;;;;;15.61;72.99;100126.70;127318;1105;22489;-79
2021/07/02 02:21:46;;;;;;;5.75;4.38;;;;;;;15.67;73.16;100125.10;127513;1101;22417;-80
2021/07/02 02:24:18;;;;;;;6.65;4.95;;;;;;;15.71;73.34;100127.13;127990;1101;22439;-78
2021/07/02 02:26:47;;;;;;;7.58;5.30;;;;;;;15.76;73.21;100116.70;127693;1101;22437;-78
2021/07/02 02:29:17;;;;;;;8.63;5.40;;;;;;;15.81;73.39;100118.72;127612;1101;22570;-78
2021/07/02 02:31:49;;;;;;;6.73;5.03;;;;;;;15.87;73.25;100127.73;127251;1101;22737;-80
2021/07/02 02:34:21;;;;;;;6.85;6.15;;;;;;;15.94;73.26;100137.34;128171;1101;22509;-78
2021/07/02 02:36:51;;;;;;;7.45;5.25;;;;;;;15.99;72.66;100128.72;128029;1100;22387;-78
2021/07/02 02:39:21;;;;;;;5.15;4.68;;;;;;;16.05;72.90;100140.40;127550;1104;22501;-79
2021/07/02 02:41:52;;;;;;;7.60;4.60;;;;;;;16.09;72.78;100137.09;127514;1104;22426;-79
2021/07/02 02:44:23;;;;;;;5.63;4.43;;;;;;;16.13;72.48;100149.00;127774;1104;22676;-79
2021/07/02 02:46:54;;;;;;;5.65;4.60;;;;;;;16.16;72.54;100139.74;127771;1105;22422;-80
2021/07/02 02:49:25;;;;;;;7.55;4.45;;;;;;;16.18;72.43;100146.51;127535;1101;22384;-78
2021/07/02 02:51:54;;;;;;;6.43;4.53;;;;;;;16.21;72.38;100147.94;127629;1101;25886;-78
2021/07/02 02:54:24;;;;;;;5.43;4.93;;;;;;;16.25;72.41;100141.16;127603;1101;22401;-78
2021/07/02 02:57:03;;;;;;;9.58;4.60;;;;;;;16.27;72.49;100136.45;127583;1098;22358;-78
2021/07/02 02:59:37;;;;;;;5.43;4.80;;;;;;;16.30;72.44;100132.55;128248;1098;22388;-78
2021/07/02 03:02:12;;;;;;;4.78;4.20;;;;;;;16.33;72.67;100143.61;128246;1098;22386;-79
2021/07/02 03:04:41;;;;;;;8.78;5.60;;;;;;;16.37;72.61;100128.83;128235;1098;22379;-80
2021/07/02 03:07:11;;;;;;;7.18;5.05;;;;;;;16.39;72.54;100132.11;128275;1098;22394;-79
2021/07/02 03:09:41;;;;;;;9.63;4.48;;;;;;;16.41;72.08;100132.70;128012;1098;22397;-78
2021/07/02 03:12:12;;;;;;;4.98;4.48;;;;;;;16.42;72.24;100125.52;128013;1098;22406;-79
2021/07/02 03:14:42;;;;;;;5.03;4.45;;;;;;;16.44;72.31;100126.95;128294;1098;23912;-78
2021/07/02 03:17:12;;;;;;;5.95;4.98;;;;;;;16.47;72.12;100131.86;127968;1098;22738;-80
2021/07/02 03:19:44;;;;;;;6.03;4.65;;;;;;;16.47;72.16;100145.19;128021;1098;22401;-78
2021/07/02 03:22:15;;;;;;;5.50;5.00;;;;;;;16.52;72.42;100146.39;128261;1098;22379;-79
2021/07/02 03:24:46;;;;;;;6.73;5.45;;;;;;;16.51;72.27;100150.91;128019;1098;22408;-79
2021/07/02 03:27:17;;;;;;;6.15;4.75;;;;;;;16.53;72.04;100143.53;127653;1101;22414;-78
2021/07/02 03:29:48;;;;;;;6.40;4.93;;;;;;;16.53;71.95;100140.87;127662;1101;23254;-79
2021/07/02 03:32:19;;;;;;;5.60;4.90;;;;;;;16.54;72.19;100147.83;127673;1101;23348;-78
2021/07/02 03:34:49;;;;;;;5.93;4.85;;;;;;;16.57;71.58;100143.92;127582;1101;22421;-79
2021/07/02 03:37:23;;;;;;;7.95;5.33;;;;;;;16.59;72.34;100152.52;127640;1101;24540;-78
2021/07/02 03:39:54;;;;;;;6.80;4.45;;;;;;;16.60;71.88;100152.32;127822;1101;22468;-78
2021/07/02 03:42:24;;;;;;;10.40;4.85;;;;;;;16.62;72.09;100147.57;127565;1101;22845;-78
2021/07/02 03:44:54;;;;;;;5.78;5.28;;;;;;;16.67;72.11;100144.29;127626;1098;22679;-77
2021/07/02 03:47:24;;;;;;;5.83;4.85;;;;;;;16.69;71.93;100148.38;127972;1101;22419;-77
2021/07/02 03:49:54;;;;;;;6.10;5.40;;;;;;;16.71;72.00;100140.16;127570;1101;24540;-78
2021/07/02 03:52:25;;;;;;;6.85;5.45;;;;;;;16.72;71.72;100139.12;127675;1101;24551;-77
2021/07/02 03:54:55;;;;;;;7.13;5.97;;;;;;;16.75;72.02;100138.73;127579;1101;22402;-78
2021/07/02 03:57:25;;;;;;;6.50;5.90;;;;;;;16.81;71.64;100142.40;127557;1101;22401;-78
2021/07/02 03:59:54;;;;;;;6.33;5.73;;;;;;;16.86;71.92;100148.73;127595;1101;22396;-79
2021/07/02 04:02:24;;;;;;;6.40;5.65;;;;;;;16.92;72.14;100142.52;127565;1101;23740;-79
2021/07/02 04:04:54;;;;;;;7.68;6.10;;;;;;;16.99;71.45;100136.33;127598;1101;23173;-79
2021/07/02 04:07:25;;;;;;;7.08;5.55;;;;;;;17.09;72.32;100142.02;127650;1098;22405;-80
2021/07/02 04:09:55;;;;;;;9.13;6.18;;;;;;;17.18;71.70;100152.22;128244;1098;25050;-79
2021/07/02 04:12:25;;;;;;;7.00;6.40;;;;;;;17.30;71.55;100151.54;128053;1098;22100;-79
2021/07/02 04:14:56;;;;;;;6.90;6.30;;;;;;;17.40;71.40;100149.20;128018;1098;22378;-78
2021/07/02 04:17:26;;;;;;;7.23;6.63;;;;;;;17.53;71.22;100158.97;127980;1098;22792;-78
2021/07/02 04:20:00;;;;;;;7.00;6.40;;;;;;;17.60;71.04;100163.20;127686;1101;22403;-77
2021/07/02 04:22:30;;;;;;;7.17;6.57;;;;;;;17.70;70.60;100165.39;127670;1101;22400;-79
2021/07/02 04:25:01;;;;;;;9.17;6.63;;;;;;;17.72;70.05;100152.61;127885;1101;22977;-79
2021/07/02 04:27:30;;;;;;;8.03;7.33;;;;;;;17.70;69.84;100159.23;127611;1101;22389;-79
2021/07/02 04:30:03;;;;;;;7.73;7.08;;;;;;;17.71;70.14;100159.00;127679;1101;22731;-78
2021/07/02 04:32:33;;;;;;;8.55;7.63;;;;;;;17.72;69.44;100157.95;127628;1101;22718;-80
2021/07/02 04:35:11;;;;;;;8.18;7.38;;;;;;;17.76;69.93;100148.52;127627;1101;24537;-80
2021/07/02 04:37:42;;;;;;;9.93;7.40;;;;;;;17.80;70.02;100155.05;127868;1098;22428;-80
2021/07/02 04:40:12;;;;;;;8.65;7.90;;;;;;;17.88;69.64;100157.42;128053;1098;22378;-79
2021/07/02 04:42:44;;;;;;;8.13;7.43;;;;;;;17.94;69.58;100163.75;128086;1098;22851;-78
2021/07/02 04:45:15;;;;;;;7.25;6.55;;;;;;;18.00;69.42;100159.39;128090;1098;22375;-79
2021/07/02 04:47:45;;;;;;;8.23;7.20;;;;;;;18.07;69.46;100157.47;127987;1101;22408;-79
2021/07/02 04:50:15;;;;;;;8.05;7.33;;;;;;;18.09;68.82;100155.37;127954;1101;22410;-78
2021/07/02 04:52:45;;;;;;;8.65;7.55;;;;;;;18.10;68.83;100157.84;127980;1101;22412;-77
2021/07/02 04:55:15;;;;;;;8.87;7.70;;;;;;;18.17;68.96;100154.28;127749;1101;22448;-77
2021/07/02 04:57:45;;;;;;;7.50;6.80;;;;;;;18.27;68.78;100160.73;128020;1101;24238;-77
2021/07/02 05:00:15;;;;;;;8.13;6.40;;;;;;;18.34;68.46;100163.34;127986;1101;24555;-76
2021/07/02 05:02:47;;;;;;;6.43;5.93;;;;;;;18.39;67.98;100162.66;127649;1101;22731;-77
2021/07/02 05:05:17;;;;;;;9.03;8.23;;;;;;;18.47;68.14;100170.39;127595;1101;24598;-76
2021/07/02 05:07:47;;;;;;;7.23;6.38;;;;;;;18.54;67.81;100176.48;127605;1101;22846;-75
2021/07/02 05:10:16;;;;;;;8.20;6.45;;;;;;;18.64;67.72;100174.09;127956;1101;22477;-75
2021/07/02 05:12:47;;;;;;;7.68;6.88;;;;;;;18.70;67.09;100173.19;127765;1098;25247;-76
2021/07/02 05:15:17;;;;;;;7.95;6.28;;;;;;;18.75;66.34;100178.70;127943;1098;24550;-76
2021/07/02 05:17:47;;;;;;;8.30;6.75;;;;;;;18.88;66.64;100180.39;128058;1096;24524;-75
2021/07/02 05:20:16;;;;;;;7.43;6.40;;;;;;;18.94;66.30;100184.84;127975;1098;22376;-76
2021/07/02 05:22:46;;;;;;;8.55;6.20;;;;;;;18.94;65.50;100181.35;128006;1098;22388;-76
2021/07/02 05:25:16;;;;;;;7.13;6.43;;;;;;;18.95;65.48;100178.44;127990;1098;22404;-76
2021/07/02 05:27:46;;;;;;;9.40;5.53;;;;;;;18.99;65.28;100182.31;128012;1098;22397;-76
2021/07/02 05:30:18;;;;;;;7.75;7.05;;;;;;;18.95;65.00;100185.66;127995;1098;23418;-76
2021/07/02 05:32:47;;;;;;;6.75;5.78;;;;;;;18.86;64.58;100185.17;127984;1101;22420;-76
2021/07/02 05:35:17;;;;;;;6.33;5.73;;;;;;;18.83;65.28;100174.07;127932;1101;22852;-76
2021/07/02 05:37:48;;;;;;;6.55;5.73;;;;;;;18.88;65.53;100175.03;127598;1101;22406;-77
2021/07/02 05:40:19;;;;;;;7.33;4.98;;;;;;;19.05;65.38;100172.54;127586;1101;22407;-76
2021/07/02 05:42:49;;;;;;;6.00;5.50;;;;;;;19.30;65.51;100183.11;127691;1101;22829;-76
2021/07/02 05:45:19;;;;;;;5.13;4.58;;;;;;;19.57;64.34;100175.47;127603;1101;22174;-76
2021/07/02 05:47:50;;;;;;;12.37;5.77;;;;;;;19.69;63.50;100173.66;127603;1101;22407;-76
2021/07/02 05:50:21;;;;;;;7.50;5.35;;;;;;;19.73;63.16;100172.13;127553;1098;22427;-76
2021/07/02 05:52:52;;;;;;;6.40;4.98;;;;;;;19.92;63.11;100174.69;128016;1098;23447;-76
2021/07/02 05:55:26;;;;;;;6.63;5.18;;;;;;;19.97;62.02;100178.31;127963;1098;22380;-76
2021/07/02 05:57:56;;;;;;;6.97;4.70;;;;;;;19.94;61.82;100176.09;128033;1098;22385;-76
2021/07/02 06:00:27;;;;;;;5.23;4.70;;;;;;;20.05;62.65;100166.41;127971;1098;22404;-76
2021/07/02 06:02:57;;;;;;;5.00;4.53;;;;;;;20.29;61.67;100179.78;127958;1098;22419;-78
2021/07/02 06:05:27;;;;;;;6.50;5.15;;;;;;;20.41;61.31;100185.95;128012;1098;24605;-79
2021/07/02 06:07:57;;;;;;;5.48;4.85;;;;;;;20.41;60.71;100176.03;127999;1098;22392;-78
2021/07/02 06:10:27;;;;;;;6.08;4.73;;;;;;;20.43;60.64;100181.17;128050;1098;22685;-77
2021/07/02 06:12:58;;;;;;;6.13;5.03;;;;;;;20.40;59.82;100174.41;127968;1098;23159;-77
2021/07/02 06:15:28;;;;;;;12.13;4.70;;;;;;;20.38;60.62;100181.06;128037;1098;22413;-75
2021/07/02 06:18:07;;;;;;;5.53;5.03;;;;;;;20.33;59.95;100178.28;128038;1098;22387;-76
2021/07/02 06:20:37;;;;;;;5.20;4.60;;;;;;;20.30;60.03;100168.02;127982;1098;22470;-76
2021/07/02 06:23:07;;;;;;;5.95;4.28;;;;;;;20.32;60.19;100174.76;127954;1098;22410;-75
2021/07/02 06:25:37;;;;;;;7.35;4.70;;;;;;;20.35;60.08;100178.84;127972;1098;24631;-75
2021/07/02 06:28:06;;;;;;;6.53;4.83;;;;;;;20.33;59.52;100180.97;128017;1098;22413;-76
2021/07/02 06:30:36;;;;;;;9.48;6.63;;;;;;;20.27;59.55;100179.22;127984;1098;22395;-76
2021/07/02 06:33:07;;;;;;;6.95;4.88;;;;;;;20.26;59.57;100182.94;128009;1098;22414;-76
2021/07/02 06:35:37;;;;;;;7.25;4.63;;;;;;;20.29;60.17;100191.33;127976;1098;22387;-76
2021/07/02 06:38:07;;;;;;;6.18;4.50;;;;;;;20.44;59.78;100183.61;128003;1098;22454;-77
2021/07/02 06:40:37;;;;;;;5.63;4.23;;;;;;;20.56;59.26;100190.84;127983;1098;22386;-77
2021/07/02 06:43:07;;;;;;;6.18;4.88;;;;;;;20.53;58.82;100196.70;127964;1098;23247;-77
2021/07/02 06:45:37;;;;;;;5.40;5.00;;;;;;;20.44;58.79;100191.66;128016;1098;22437;-76
2021/07/02 06:48:07;;;;;;;7.73;4.90;;;;;;;20.45;58.61;100198.65;127997;1098;22395;-77
2021/07/02 06:50:45;;;;;;;6.10;5.60;;;;;;;20.57;58.23;100203.23;128002;1098;22387;-77
2021/07/02 06:53:15;;;;;;;6.68;5.40;;;;;;;20.69;58.44;100203.98;128008;1098;22439;-78
2021/07/02 06:55:45;;;;;;;4.80;4.40;;;;;;;20.81;57.80;100206.66;128042;1098;22414;-76
2021/07/02 06:58:18;;;;;;;5.43;4.70;;;;;;;20.96;57.44;100206.12;128000;1098;22448;-76
2021/07/02 07:00:48;;;;;;;6.15;4.13;;;;;;;21.04;56.98;100203.88;128025;1098;22407;-76
2021/07/02 07:03:17;;;;;;;6.58;4.45;;;;;;;21.06;56.69;100200.94;128001;1098;22407;-77
2021/07/02 07:05:49;;;;;;;5.73;4.58;;;;;;;21.04;56.58;100203.88;127993;1098;22401;-77
2021/07/02 07:08:19;;;;;;;58.90;8.83;;;;;;;21.02;56.67;100207.84;128018;1098;22394;-82
2021/07/02 07:10:48;;;;;;;13.05;6.38;;;;;;;20.93;56.64;100210.13;128036;1098;22576;-76
2021/07/02 07:13:19;;;;;;;12.83;6.68;;;;;;;20.82;57.07;100211.77;128027;1098;24275;-77
2021/07/02 07:15:49;;;;;;;36.10;9.28;;;;;;;20.77;57.50;100208.19;128076;1098;24537;-78
2021/07/02 07:18:18;;;;;;;7.95;5.60;;;;;;;20.74;57.93;100216.72;128060;1098;24298;-79
2021/07/02 07:20:49;;;;;;;7.35;5.73;;;;;;;20.78;57.65;100212.49;128034;1098;22396;-79
2021/07/02 07:23:19;;;;;;;5.98;5.05;;;;;;;21.02;58.66;100211.34;128027;1098;22390;-78
2021/07/02 07:25:49;;;;;;;5.38;4.88;;;;;;;21.44;57.53;100213.75;127974;1098;22394;-76
2021/07/02 07:28:19;;;;;;;8.10;4.80;;;;;;;21.61;55.92;100209.20;128031;1098;22394;-77
2021/07/02 07:30:49;;;;;;;6.20;4.80;;;;;;;21.68;55.54;100206.34;127945;1098;25187;-75
2021/07/02 07:33:19;;;;;;;4.35;3.95;;;;;;;21.96;56.04;100207.30;127648;1101;22434;-78
2021/07/02 07:35:51;;;;;;;4.93;4.33;;;;;;;22.16;54.95;100202.27;127921;1101;22427;-78
2021/07/02 07:38:25;;;;;;;4.75;4.28;;;;;;;22.26;54.06;100215.05;127596;1101;22424;-76
2021/07/02 07:40:55;;;;;;;6.40;4.33;;;;;;;22.19;53.62;100209.84;127630;1101;22461;-77
2021/07/02 07:43:28;;;;;;;8.48;5.10;;;;;;;22.13;53.36;100218.06;127546;1101;22417;-78
2021/07/02 07:45:58;;;;;;;5.80;5.30;;;;;;;22.01;53.62;100218.95;127558;1104;22434;-78
2021/07/02 07:48:27;;;;;;;6.60;5.63;;;;;;;21.88;53.62;100215.80;127773;1104;22535;-77
2021/07/02 07:53:45;;;;;;;5.93;5.23;;;;;;;21.46;54.59;100211.65;127622;1101;22692;-76
2021/07/02 07:56:15;;;;;;;6.60;5.90;;;;;;;21.36;54.61;100209.59;127958;1100;22406;-75
2021/07/02 07:58:45;;;;;;;7.35;5.78;;;;;;;21.28;54.83;100217.19;127968;1101;25024;-75
2021/07/02 08:01:15;;;;;;;7.23;6.23;;;;;;;21.08;55.13;100218.45;127991;1101;22396;-74
2021/07/02 08:03:45;;;;;;;7.73;6.80;;;;;;;21.00;55.39;100215.34;127975;1101;22424;-74
2021/07/02 08:06:14;;;;;;;7.08;6.35;;;;;;;20.92;55.84;100219.20;127968;1101;25069;-74
2021/07/02 08:08:45;;;;;;;8.00;7.10;;;;;;;20.83;55.80;100215.30;127563;1101;24447;-75
2021/07/02 08:11:14;;;;;;;7.88;7.18;;;;;;;20.70;55.92;100220.94;127953;1098;22394;-74
2021/07/02 08:13:44;;;;;;;7.75;7.15;;;;;;;20.59;56.15;100218.05;127917;1098;22397;-74
2021/07/02 08:16:14;;;;;;;9.40;8.48;;;;;;;20.45;56.28;100211.25;127937;1098;23393;-74
2021/07/02 08:18:43;;;;;;;9.70;8.73;;;;;;;20.34;56.44;100214.78;127993;1098;22410;-74
2021/07/02 08:21:14;;;;;;;8.58;7.88;;;;;;;20.20;56.98;100223.08;127996;1098;22401;-75
2021/07/02 08:23:45;;;;;;;9.90;8.15;;;;;;;20.09;56.95;100218.55;127965;1098;22394;-73
2021/07/02 08:26:14;;;;;;;8.40;7.70;;;;;;;20.05;57.70;100219.22;128019;1098;22496;-73
2021/07/02 08:31:33;;;;;;;8.20;7.45;;;;;;;19.98;57.78;100217.47;127955;1098;22411;-74
2021/07/02 08:34:03;;;;;;;8.75;7.85;;;;;;;20.02;58.39;100220.50;128078;1098;24540;-74
2021/07/02 08:36:35;;;;;;;8.65;7.28;;;;;;;20.08;58.40;100218.76;128044;1098;22401;-74
2021/07/02 08:39:06;;;;;;;8.05;7.35;;;;;;;20.14;58.39;100215.15;127977;1098;22403;-74
2021/07/02 08:41:38;;;;;;;8.45;7.18;;;;;;;20.24;58.70;100209.20;127991;1098;24288;-74
2021/07/02 08:44:08;;;;;;;7.33;6.63;;;;;;;20.38;58.53;100210.56;128037;1098;22430;-74
2021/07/02 08:47:00;;;;;;;8.68;6.43;;;;;;;20.51;58.33;100206.85;127978;1098;22388;-74
2021/07/02 08:49:32;;;;;;;7.00;6.25;;;;;;;20.79;58.00;100212.27;127992;1099;22379;-74
2021/07/02 08:52:02;;;;;;;7.57;6.97;;;;;;;21.23;57.83;100203.69;127648;1101;22391;-75
2021/07/02 08:54:31;;;;;;;7.07;6.13;;;;;;;21.81;57.10;100202.52;127481;1105;22593;-74
2021/07/02 08:57:01;;;;;;;8.05;6.90;;;;;;;22.22;55.67;100197.75;127326;1105;22452;-75
2021/07/02 08:59:31;;;;;;;7.28;5.53;;;;;;;22.48;54.06;100205.10;127542;1105;23274;-74
2021/07/02 09:02:00;;;;;;;7.87;5.27;;;;;;;22.49;52.83;100213.98;127587;1105;24216;-75
2021/07/02 09:04:34;;;;;;;6.25;5.65;;;;;;;22.40;52.85;100210.13;127474;1105;22404;-75
2021/07/02 09:07:15;;;;;;;6.53;5.93;;;;;;;22.26;52.64;100212.36;127123;1105;24543;-73
2021/07/02 09:09:58;;;;;;;7.15;6.35;;;;;;;22.02;52.94;100212.51;127456;1101;22396;-74
2021/07/02 09:12:37;;;;;;;7.13;6.48;;;;;;;21.81;53.46;100208.70;127686;1101;22441;-74
2021/07/02 09:15:10;;;;;;;7.40;6.73;;;;;;;21.66;53.77;100213.02;127980;1101;22482;-74
2021/07/02 09:17:49;;;;;;;7.40;6.80;;;;;;;21.49;54.17;100213.85;127980;1101;24260;-74
2021/07/02 09:20:49;;;;;;;8.20;7.40;;;;;;;21.31;54.57;100200.59;127988;1098;22413;-74
2021/07/02 09:23:18;;;;;;;9.00;7.50;;;;;;;21.23;55.18;100209.06;127992;1098;22466;-76
2021/07/02 09:25:54;;;;;;;11.50;8.85;;;;;;;21.25;55.27;100202.36;127958;1098;22388;-74
2021/07/02 09:28:31;;;;;;;7.78;7.18;;;;;;;21.27;55.09;100207.52;128056;1098;22411;-74
2021/07/02 09:31:01;;;;;;;8.08;7.30;;;;;;;21.29;55.09;100214.28;127961;1098;22403;-75
2021/07/02 09:33:36;;;;;;;8.13;7.20;;;;;;;21.32;55.06;100211.08;127977;1098;22498;-75
2021/07/02 09:36:07;;;;;;;8.03;7.33;;;;;;;21.31;54.84;100205.97;128015;1096;22436;-74
2021/07/02 09:38:40;;;;;;;8.93;8.00;;;;;;;21.32;54.71;100221.02;127980;1098;22407;-74
2021/07/02 09:41:10;;;;;;;7.45;6.43;;;;;;;21.32;55.23;100215.65;128002;1098;22694;-74
2021/07/02 09:43:40;;;;;;;7.17;6.47;;;;;;;21.37;55.01;100213.09;127982;1098;22407;-74
2021/07/02 09:46:09;;;;;;;7.03;6.33;;;;;;;21.45;54.87;100214.56;128014;1096;22438;-74
2021/07/02 09:48:45;;;;;;;6.53;5.98;;;;;;;21.52;54.91;100202.59;128012;1098;24276;-75
2021/07/02 09:51:24;;;;;;;5.90;5.40;;;;;;;21.71;55.13;100205.05;127981;1098;22388;-75
2021/07/02 09:54:08;;;;;;;6.03;5.58;;;;;;;22.06;54.28;100202.91;128029;1098;24515;-74
2021/07/02 09:56:38;;;;;;;6.03;5.47;;;;;;;22.30;53.28;100195.46;127993;1098;22389;-74
2021/07/02 09:59:16;;;;;;;7.68;4.85;;;;;;;22.39;52.78;100205.78;128268;1098;22412;-73
2021/07/02 10:01:48;;;;;;;5.78;4.80;;;;;;;22.41;52.38;100200.97;128085;1098;24231;-73
2021/07/02 10:04:18;;;;;;;7.03;6.00;;;;;;;22.38;52.67;100204.16;127966;1098;22412;-73
2021/07/02 10:06:48;;;;;;;8.85;5.20;;;;;;;22.36;52.21;100201.73;128021;1098;24528;-73
2021/07/02 10:09:17;;;;;;;5.28;4.70;;;;;;;22.36;52.84;100204.42;127985;1098;22395;-72
2021/07/02 10:11:47;;;;;;;4.93;4.48;;;;;;;22.29;52.39;100212.68;128015;1098;24531;-74
2021/07/02 10:14:17;;;;;;;4.85;4.45;;;;;;;22.29;52.80;100203.77;127970;1098;22931;-74
2021/07/02 10:16:47;;;;;;;9.48;5.00;;;;;;;22.29;52.72;100209.15;128015;1098;22408;-74
2021/07/02 10:19:19;;;;;;;6.20;5.58;;;;;;;22.21;52.50;100212.28;128003;1098;22471;-73
2021/07/02 10:21:49;;;;;;;6.20;5.70;;;;;;;22.02;52.92;100220.58;127946;1098;22388;-73
2021/07/02 10:24:20;;;;;;;7.08;6.43;;;;;;;21.88;53.31;100227.36;128006;1098;22391;-75
2021/07/02 10:26:53;;;;;;;7.55;6.65;;;;;;;21.86;54.07;100224.13;127979;1098;24530;-72
2021/07/02 10:29:23;;;;;;;7.65;6.95;;;;;;;21.81;53.75;100227.53;127979;1098;22410;-73
2021/07/02 10:31:52;;;;;;;8.67;7.87;;;;;;;21.70;53.94;100227.63;128008;1098;24851;-74
2021/07/02 10:34:23;;;;;;;8.08;6.95;;;;;;;21.64;54.28;100223.22;127983;1098;22986;-73
2021/07/02 10:36:52;;;;;;;7.55;6.80;;;;;;;21.63;54.54;100229.66;128018;1098;23335;-74
2021/07/02 10:39:36;;;;;;;7.55;6.90;;;;;;;21.58;54.53;100227.69;127949;1098;22389;-74
2021/07/02 10:42:15;;;;;;;7.33;6.45;;;;;;;21.59;54.85;100229.30;127975;1098;22396;-75
2021/07/02 10:44:54;;;;;;;28.83;9.45;;;;;;;21.65;54.96;100232.91;128010;1096;22389;-79
2021/07/02 10:47:26;;;;;;;7.95;5.78;;;;;;;21.72;55.10;100236.23;127967;1098;22392;-76
2021/07/02 10:49:56;;;;;;;9.70;8.18;;;;;;;21.74;55.09;100231.45;128038;1101;22382;-75
2021/07/02 10:52:31;;;;;;;10.45;9.45;;;;;;;21.72;54.67;100237.05;127685;1101;22374;-76
2021/07/02 10:55:06;;;;;;;10.63;9.73;;;;;;;21.68;55.06;100240.48;128050;1101;22730;-76
2021/07/02 10:57:54;;;;;;;9.35;8.55;;;;;;;21.59;54.91;100240.90;128168;1100;22394;-75
2021/07/02 11:00:24;;;;;;;10.58;9.53;;;;;;;21.52;54.71;100236.72;127724;1101;22698;-75
2021/07/02 11:03:24;;;;;;;9.75;8.80;;;;;;;21.48;55.38;100249.83;128054;1101;22401;-75
2021/07/02 11:05:53;;;;;;;10.10;9.10;;;;;;;21.40;55.16;100246.73;128025;1100;23328;-75
2021/07/02 11:08:46;;;;;;;11.90;9.95;;;;;;;21.38;56.08;100245.08;127766;1098;22407;-76
2021/07/02 11:11:15;;;;;;;12.88;9.48;;;;;;;21.34;55.74;100248.47;128030;1098;22408;-75
2021/07/02 11:14:10;;;;;;;9.70;8.18;;;;;;;21.31;55.73;100246.27;128061;1098;22666;-75
2021/07/02 11:17:23;;;;;;;10.05;9.15;;;;;;;21.29;56.14;100241.15;128043;1098;22394;-75
2021/07/02 11:20:26;;;;;;;9.58;8.85;;;;;;;21.34;56.13;100243.10;128051;1098;22371;-75
2021/07/02 11:22:59;;;;;;;10.35;8.30;;;;;;;21.43;56.26;100243.56;127569;1101;25121;-75
2021/07/02 11:25:59;;;;;;;10.70;9.63;;;;;;;21.51;55.75;100241.28;127646;1101;22432;-76
2021/07/02 11:28:54;;;;;;;12.25;11.15;;;;;;;21.52;55.74;100245.59;127642;1101;22420;-75
2021/07/02 11:31:38;;;;;;;12.18;11.08;;;;;;;21.50;55.61;100247.72;127642;1101;24537;-77
2021/07/02 11:34:15;;;;;;;13.10;12.00;;;;;;;21.35;55.60;100250.13;127806;1101;23166;-76
2021/07/02 11:37:08;;;;;;;12.85;11.58;;;;;;;21.26;55.99;100243.47;127668;1101;22396;-76
2021/07/02 11:39:39;;;;;;;14.65;10.53;;;;;;;21.11;56.33;100252.89;127831;1101;22394;-76
2021/07/02 11:42:10;;;;;;;11.70;10.70;;;;;;;21.09;56.45;100251.48;127658;1101;22396;-75
2021/07/02 11:44:40;;;;;;;11.45;10.45;;;;;;;21.06;56.55;100254.65;127707;1101;22398;-75